LICCLICZ

Guest
Details From LICC - Catania Fontanarossa
To LICZ - Sigonella
Flight Number -
Tags Routegen Generated
Created
Modified
Stats Distance 17 nm / 32 km
Max Altitude 100 ft / 30 m
Waypoints 5
Social Downloads 1
Likes 0
Share VATSIM

Download

Looking for another format? Having issues loading an existing format? Contact us
Advertisement - Login to hide

Notes

Departing runway 8 LICC. Arriving runway 9 LICZ.

Route

LICC +37.48_+015.17 +37.43_+015.10 +37.39_+015.03 LICZ

ID Type Via Altitude (ft/m) Position (lat/lon) Dist (leg/tot) Name
O LICC APT - 0 / 0 37.46793 / 15.08011 - / 0 nm
+37.48_+015.17 LATLON - 100 / 30 37.47552 / 15.17079 4 / 4 nm
+37.43_+015.10 LATLON - 100 / 30 37.43255 / 15.09849 4 / 8 nm
+37.39_+015.03 LATLON - 100 / 30 37.38958 / 15.02619 4 / 12 nm
O LICZ APT - 0 / 0 37.40004 / 14.93606 4 / 17 nm

Altitude Profile

Advertisement - Login to hide

LICC

Details ICAO LICC (CTA)
Name Catania Fontanarossa
Region Italy
Timezone Europe/Rome (UTC+2.0)
Stats Elevation 39 ft / 12 m (AMSL)
Location 37.466800° 15.066500°
Runways 1
Magnetic Variation 3.354° E

METAR

LICC 241450Z 08013KT 9999 FEW040 22/12 Q1014

Decode

TAF

TAF LICC 241100Z 2412/2512 10012KT 9999 FEW040 BECMG 2418/2420 VRB04KT BECMG 2509/2511 10012KT

Decode

Departure Runways

ID Width Length Bearing (true/mag) Surface Threshold Overrun Markings Lighting
08 148 ft / 45 m 8,000 ft / 2,438 m 83.94° / 80.59° ASPHALT 0 ft / 0 m 0 ft / 0 m APP CENTERLINE EDGE THRESHOLD MALSF
26 148 ft / 45 m 8,000 ft / 2,438 m 263.96° / 260.60° ASPHALT 0 ft / 0 m 0 ft / 0 m APP CENTERLINE EDGE THRESHOLD MALSF

LICZ

Details ICAO LICZ (NSY)
Name SIGONELLA
Region Italy
Timezone Europe/Rome (UTC+2.0)
Stats Elevation 79 ft / 24 m (AMSL)
Location 37.402600° 14.922500°
Runways 2
Magnetic Variation 3.328° E

METAR

LICZ 241355Z 06017KT 9999 FEW025 23/10 Q1014 RMK BKN BKN150 VIS MIN 9999 WIND THR28 06014KT WIND THR10 06016KT A2997 BLU

Decode

TAF

Not found

Destination Runways

ID Width Length Bearing (true/mag) Surface Threshold Overrun Markings Lighting
10L 98 ft / 30 m 7,997 ft / 2,437 m 98.38° / 95.05° ASPHALT 146 ft / 45 m 0 ft / 0 m APP EDGE THRESHOLD REIL-OMNI
10R 148 ft / 45 m 8,060 ft / 2,457 m 98.27° / 94.94° ASPHALT 343 ft / 105 m 760 ft / 232 m APP EDGE THRESHOLD MALS REIL-OMNI
28L 148 ft / 45 m 8,060 ft / 2,457 m 278.29° / 274.96° ASPHALT 349 ft / 106 m 704 ft / 215 m APP EDGE THRESHOLD CALVERT REIL-OMNI
28R 98 ft / 30 m 7,997 ft / 2,437 m 278.40° / 275.07° ASPHALT 139 ft / 42 m 0 ft / 0 m APP EDGE THRESHOLD CALVERT REIL-OMNI

Popular Alternatives